Time;durP1;ratioP1;P1;durP2;ratioP2;P2;SDS_P1;SDS_P2;PMS_P1;PMS_P2;Temp;Humidity;BMP_temperature;BMP_pressure;BME280_temperature;BME280_humidity;BME280_pressure;Samples;Min_cycle;Max_cycle;Signal;HPM_P1;HPM_P2
2021/01/06 00:01:14;;;;;;;14.10;9.33;;;;;;;;;;5099895;28;20193;-85
2021/01/06 00:03:40;;;;;;;20.80;13.33;;;;;;;;;;5118168;28;20240;-85
2021/01/06 00:06:07;;;;;;;12.83;9.00;;;;;;;;;;5118319;28;20233;-84
2021/01/06 00:08:34;;;;;;;8.93;6.90;;;;;;;;;;5118394;28;20237;-85
2021/01/06 00:11:01;;;;;;;12.90;8.40;;;;;;;;;;5118132;28;20233;-84
2021/01/06 00:13:27;;;;;;;9.33;7.17;;;;;;;;;;5117889;28;20235;-83
2021/01/06 00:15:54;;;;;;;8.53;7.03;;;;;;;;;;5117698;28;20237;-83
2021/01/06 00:18:22;;;;;;;36.87;18.73;;;;;;;;;;5116980;28;20478;-83
2021/01/06 00:20:48;;;;;;;12.17;8.57;;;;;;;;;;5116609;28;20330;-83
2021/01/06 00:23:15;;;;;;;16.07;10.23;;;;;;;;;;5099221;28;20193;-83
2021/01/06 00:25:41;;;;;;;7.67;6.80;;;;;;;;;;5117592;28;20212;-83
2021/01/06 00:28:08;;;;;;;8.87;7.23;;;;;;;;;;5116948;28;20266;-83
2021/01/06 00:30:35;;;;;;;9.90;7.30;;;;;;;;;;5117556;28;20205;-84
2021/01/06 00:33:04;;;;;;;9.63;7.10;;;;;;;;;;5117044;28;20278;-84
2021/01/06 00:35:30;;;;;;;7.03;6.33;;;;;;;;;;5117344;28;20263;-84
2021/01/06 00:37:57;;;;;;;8.07;5.87;;;;;;;;;;5117371;28;20228;-83
2021/01/06 00:40:28;;;;;;;8.00;6.13;;;;;;;;;;5117469;28;20233;-83
2021/01/06 00:42:55;;;;;;;9.60;6.60;;;;;;;;;;5117629;28;20205;-83
2021/01/06 00:45:21;;;;;;;7.87;6.37;;;;;;;;;;5117526;28;20236;-83
2021/01/06 00:47:47;;;;;;;7.03;6.33;;;;;;;;;;5117118;28;20209;-85
2021/01/06 00:50:14;;;;;;;8.47;6.63;;;;;;;;;;5117432;28;20219;-85
2021/01/06 00:52:40;;;;;;;7.93;6.60;;;;;;;;;;5116866;28;20233;-84
2021/01/06 00:55:07;;;;;;;8.53;6.80;;;;;;;;;;5117329;28;20621;-84
2021/01/06 00:57:33;;;;;;;7.60;6.67;;;;;;;;;;5116492;28;20201;-84
2021/01/06 00:59:59;;;;;;;8.40;6.50;;;;;;;;;;5116903;28;20240;-84
2021/01/06 01:02:25;;;;;;;7.57;6.43;;;;;;;;;;5117236;28;20236;-84
2021/01/06 01:04:51;;;;;;;7.37;6.07;;;;;;;;;;5117170;28;20489;-84
2021/01/06 01:07:18;;;;;;;9.20;6.67;;;;;;;;;;5117090;28;20232;-85
2021/01/06 01:09:44;;;;;;;7.70;6.67;;;;;;;;;;5117322;28;20228;-84
2021/01/06 01:12:12;;;;;;;7.00;6.30;;;;;;;;;;5116609;28;20293;-85
2021/01/06 01:14:38;;;;;;;10.50;6.53;;;;;;;;;;5116436;28;20252;-83
2021/01/06 01:17:04;;;;;;;7.33;6.33;;;;;;;;;;5116548;28;20277;-85
2021/01/06 01:19:30;;;;;;;8.67;6.70;;;;;;;;;;5116693;28;20240;-84
2021/01/06 01:21:56;;;;;;;7.97;6.63;;;;;;;;;;5116462;28;20225;-84
2021/01/06 01:24:23;;;;;;;8.67;7.30;;;;;;;;;;5116683;28;20232;-84
2021/01/06 01:26:50;;;;;;;10.83;7.10;;;;;;;;;;5116179;28;20209;-85
2021/01/06 01:29:16;;;;;;;9.67;7.30;;;;;;;;;;5116280;28;20244;-82
2021/01/06 01:31:45;;;;;;;8.37;7.30;;;;;;;;;;5115585;28;20252;-84
2021/01/06 01:34:11;;;;;;;9.50;8.00;;;;;;;;;;5116428;28;20235;-84
2021/01/06 01:36:37;;;;;;;8.80;7.27;;;;;;;;;;5116427;28;20251;-85
2021/01/06 01:39:04;;;;;;;8.83;6.87;;;;;;;;;;5116507;28;20237;-83
2021/01/06 01:41:31;;;;;;;10.67;7.70;;;;;;;;;;5116040;28;20240;-85
2021/01/06 01:43:57;;;;;;;9.00;7.40;;;;;;;;;;5116496;28;20632;-84
2021/01/06 01:46:45;;;;;;;11.93;7.27;;;;;;;;;;5115870;28;20220;-85
2021/01/06 01:49:16;;;;;;;9.63;7.37;;;;;;;;;;5116317;28;20633;-84
2021/01/06 01:51:45;;;;;;;9.47;6.87;;;;;;;;;;5116010;28;20228;-85
2021/01/06 01:54:13;;;;;;;7.77;6.80;;;;;;;;;;5116250;28;20228;-85
2021/01/06 01:56:44;;;;;;;7.33;6.47;;;;;;;;;;5115695;28;20252;-85
2021/01/06 01:59:14;;;;;;;8.47;6.73;;;;;;;;;;5116055;28;20228;-85
2021/01/06 02:01:40;;;;;;;9.13;6.97;;;;;;;;;;5116022;28;20498;-83
2021/01/06 02:04:09;;;;;;;12.10;6.60;;;;;;;;;;5116012;28;20233;-85
2021/01/06 02:06:37;;;;;;;7.80;6.77;;;;;;;;;;5115424;28;20232;-85
2021/01/06 02:09:06;;;;;;;8.53;7.10;;;;;;;;;;5115597;28;20236;-84
2021/01/06 02:11:36;;;;;;;9.07;6.67;;;;;;;;;;5115496;28;20239;-84
2021/01/06 02:14:05;;;;;;;8.27;7.00;;;;;;;;;;5115343;28;20543;-84
2021/01/06 02:16:38;;;;;;;8.70;7.00;;;;;;;;;;5115180;28;20244;-84
2021/01/06 02:19:04;;;;;;;9.27;7.13;;;;;;;;;;5115665;28;20201;-84
2021/01/06 02:21:31;;;;;;;10.00;7.37;;;;;;;;;;5115386;28;20620;-84
2021/01/06 02:23:58;;;;;;;6.73;6.00;;;;;;;;;;5115167;28;20634;-84
2021/01/06 02:26:25;;;;;;;10.10;6.90;;;;;;;;;;5115323;28;20240;-84
2021/01/06 02:28:52;;;;;;;8.60;6.93;;;;;;;;;;5115277;28;20208;-83
2021/01/06 02:31:18;;;;;;;10.70;7.07;;;;;;;;;;5115146;28;20256;-82
2021/01/06 02:33:45;;;;;;;11.20;7.00;;;;;;;;;;5115483;28;20224;-84
2021/01/06 02:36:11;;;;;;;8.23;6.50;;;;;;;;;;5115371;28;20565;-85
2021/01/06 02:38:38;;;;;;;7.57;6.67;;;;;;;;;;5115419;28;20224;-84
2021/01/06 02:41:04;;;;;;;7.83;6.70;;;;;;;;;;5115088;28;20209;-84
2021/01/06 02:43:30;;;;;;;8.77;6.80;;;;;;;;;;5114523;28;20224;-85
2021/01/06 02:45:56;;;;;;;7.50;6.63;;;;;;;;;;5114884;28;20262;-84
2021/01/06 02:48:23;;;;;;;8.67;6.93;;;;;;;;;;5115393;28;20240;-85
2021/01/06 02:50:53;;;;;;;8.00;6.80;;;;;;;;;;5114686;28;20310;-84
2021/01/06 02:53:21;;;;;;;7.83;6.43;;;;;;;;;;5115228;28;20225;-84
2021/01/06 02:55:48;;;;;;;8.10;6.87;;;;;;;;;;5114799;28;20240;-85
2021/01/06 02:58:17;;;;;;;7.87;6.37;;;;;;;;;;5115763;28;20233;-85
2021/01/06 03:00:43;;;;;;;8.47;6.60;;;;;;;;;;5114953;28;20209;-84
2021/01/06 03:03:11;;;;;;;7.67;6.60;;;;;;;;;;5115411;28;20200;-84
2021/01/06 03:05:39;;;;;;;8.07;6.90;;;;;;;;;;5114861;28;20713;-84
2021/01/06 03:08:06;;;;;;;8.33;6.40;;;;;;;;;;5114909;28;20205;-84
2021/01/06 03:10:32;;;;;;;8.17;6.53;;;;;;;;;;5115078;28;20205;-84
2021/01/06 03:12:59;;;;;;;8.10;7.30;;;;;;;;;;5115124;28;20237;-85
2021/01/06 03:15:26;;;;;;;7.57;6.77;;;;;;;;;;5114643;28;20741;-85
2021/01/06 03:17:53;;;;;;;6.97;6.27;;;;;;;;;;5114728;28;20524;-84
2021/01/06 03:20:22;;;;;;;7.13;6.43;;;;;;;;;;5114766;28;20240;-84
2021/01/06 03:22:50;;;;;;;7.27;6.50;;;;;;;;;;5115053;28;20311;-85
2021/01/06 03:25:17;;;;;;;6.80;6.20;;;;;;;;;;5114608;28;20221;-84
2021/01/06 03:27:45;;;;;;;7.80;6.10;;;;;;;;;;5114796;28;20232;-82
2021/01/06 03:30:13;;;;;;;7.10;6.40;;;;;;;;;;5114529;28;20224;-84
2021/01/06 03:32:43;;;;;;;6.70;6.10;;;;;;;;;;5114328;28;20290;-84
2021/01/06 03:35:12;;;;;;;7.70;6.53;;;;;;;;;;5114474;28;20241;-84
2021/01/06 03:37:40;;;;;;;7.23;5.93;;;;;;;;;;5114893;28;20209;-84
2021/01/06 03:40:11;;;;;;;7.93;6.53;;;;;;;;;;5113484;28;20201;-84
2021/01/06 03:42:38;;;;;;;7.87;6.17;;;;;;;;;;5114866;28;20197;-83
2021/01/06 03:45:05;;;;;;;7.83;6.63;;;;;;;;;;5113760;28;20240;-84
2021/01/06 03:47:34;;;;;;;7.60;6.80;;;;;;;;;;5114153;28;20504;-84
2021/01/06 03:50:02;;;;;;;7.47;6.43;;;;;;;;;;5114225;28;20228;-84
2021/01/06 03:52:36;;;;;;;7.07;6.17;;;;;;;;;;5114260;28;20231;-82
2021/01/06 03:55:04;;;;;;;8.80;6.30;;;;;;;;;;5117868;28;20244;-83
2021/01/06 03:57:31;;;;;;;8.93;6.63;;;;;;;;;;5118518;28;20634;-83
2021/01/06 03:59:58;;;;;;;7.43;6.40;;;;;;;;;;5118449;28;20197;-84
2021/01/06 04:02:27;;;;;;;7.23;5.97;;;;;;;;;;5118386;28;20239;-85
2021/01/06 04:04:56;;;;;;;6.50;5.90;;;;;;;;;;5118085;28;20212;-82
2021/01/06 04:07:25;;;;;;;7.00;6.30;;;;;;;;;;5118287;28;20233;-82
2021/01/06 04:09:52;;;;;;;6.57;5.97;;;;;;;;;;5118012;28;20663;-82
2021/01/06 04:12:19;;;;;;;6.50;5.90;;;;;;;;;;5118110;28;20240;-85
2021/01/06 04:14:46;;;;;;;6.93;6.30;;;;;;;;;;5117828;28;20228;-84
2021/01/06 04:17:26;;;;;;;6.60;5.90;;;;;;;;;;5117941;28;20252;-86
2021/01/06 04:19:56;;;;;;;6.43;5.87;;;;;;;;;;5117485;28;20240;-85
2021/01/06 04:22:36;;;;;;;6.50;5.80;;;;;;;;;;5118169;28;20205;-86
2021/01/06 04:25:02;;;;;;;6.33;5.73;;;;;;;;;;5117773;28;20228;-82
2021/01/06 04:27:28;;;;;;;7.80;6.23;;;;;;;;;;5117974;28;20244;-84
2021/01/06 04:29:54;;;;;;;7.47;6.13;;;;;;;;;;5117406;28;20232;-84
2021/01/06 04:32:20;;;;;;;7.10;6.37;;;;;;;;;;5117459;28;20257;-81
2021/01/06 04:34:46;;;;;;;6.77;6.07;;;;;;;;;;5117757;28;20493;-83
2021/01/06 04:37:12;;;;;;;6.63;5.90;;;;;;;;;;5099326;28;20290;-84
2021/01/06 04:39:39;;;;;;;6.93;6.10;;;;;;;;;;5117105;28;20525;-83
2021/01/06 04:42:07;;;;;;;8.27;6.17;;;;;;;;;;5117817;28;20232;-83
2021/01/06 04:44:43;;;;;;;7.03;6.23;;;;;;;;;;5117343;28;20232;-83
2021/01/06 04:47:20;;;;;;;6.17;5.57;;;;;;;;;;5099363;28;20193;-83
2021/01/06 04:49:51;;;;;;;7.13;6.20;;;;;;;;;;5117202;28;20228;-82
2021/01/06 04:52:29;;;;;;;7.20;6.03;;;;;;;;;;5117606;28;20609;-83
2021/01/06 04:55:02;;;;;;;6.43;5.83;;;;;;;;;;5116997;28;20232;-82
2021/01/06 04:57:41;;;;;;;6.07;5.47;;;;;;;;;;5117269;28;20197;-84
2021/01/06 05:00:11;;;;;;;6.33;5.20;;;;;;;;;;5098982;28;20577;-85
2021/01/06 05:02:58;;;;;;;6.00;5.33;;;;;;;;;;5117443;28;20257;-84
2021/01/06 05:05:32;;;;;;;5.87;5.37;;;;;;;;;;5109446;28;20201;-86
2021/01/06 05:08:05;;;;;;;6.47;5.80;;;;;;;;;;5117218;28;20201;-85
2021/01/06 05:10:34;;;;;;;6.20;5.63;;;;;;;;;;5116525;28;20237;-83
2021/01/06 05:13:02;;;;;;;6.23;5.63;;;;;;;;;;5117065;28;20237;-83
2021/01/06 05:15:33;;;;;;;6.37;5.77;;;;;;;;;;5116746;28;20236;-84
2021/01/06 05:17:59;;;;;;;5.90;5.30;;;;;;;;;;5117026;28;20235;-84
2021/01/06 05:20:25;;;;;;;5.80;5.30;;;;;;;;;;5115905;28;20330;-85
2021/01/06 05:22:51;;;;;;;6.57;5.70;;;;;;;;;;5116441;28;20240;-85
2021/01/06 05:25:18;;;;;;;6.10;5.50;;;;;;;;;;5116982;28;20239;-85
2021/01/06 05:27:46;;;;;;;7.90;5.50;;;;;;;;;;5116750;28;20201;-84
2021/01/06 05:30:18;;;;;;;6.13;5.53;;;;;;;;;;5116669;28;20233;-84
2021/01/06 05:32:45;;;;;;;6.33;5.73;;;;;;;;;;5095127;28;20495;-83
2021/01/06 05:35:14;;;;;;;6.60;5.47;;;;;;;;;;5096136;28;20233;-85
2021/01/06 05:37:42;;;;;;;7.80;6.57;;;;;;;;;;5096261;28;20229;-83
2021/01/06 05:40:09;;;;;;;6.60;5.90;;;;;;;;;;5095576;28;20237;-83
2021/01/06 05:42:40;;;;;;;9.17;6.43;;;;;;;;;;5096008;28;20578;-82
2021/01/06 05:45:08;;;;;;;7.77;6.53;;;;;;;;;;5095865;28;20206;-82
2021/01/06 05:47:37;;;;;;;8.17;6.40;;;;;;;;;;5095631;28;20202;-82
2021/01/06 05:50:04;;;;;;;7.53;6.73;;;;;;;;;;5095997;28;20303;-82
2021/01/06 05:52:31;;;;;;;7.20;6.40;;;;;;;;;;5095841;28;20210;-82
2021/01/06 05:55:00;;;;;;;7.53;6.53;;;;;;;;;;5095499;28;20544;-82
2021/01/06 05:57:35;;;;;;;7.23;6.53;;;;;;;;;;5095747;28;20244;-83
2021/01/06 06:00:19;;;;;;;8.50;6.90;;;;;;;;;;5095849;28;20205;-83
2021/01/06 06:02:48;;;;;;;9.23;6.63;;;;;;;;;;5095934;28;20233;-82
2021/01/06 06:05:31;;;;;;;7.37;6.43;;;;;;;;;;5095783;28;20204;-83
2021/01/06 06:08:02;;;;;;;11.00;7.10;;;;;;;;;;5095553;28;20201;-82
2021/01/06 06:10:32;;;;;;;7.77;6.50;;;;;;;;;;5095549;28;20237;-82
2021/01/06 06:13:02;;;;;;;8.13;7.03;;;;;;;;;;5095551;28;20214;-81
2021/01/06 06:15:37;;;;;;;8.73;7.83;;;;;;;;;;5095124;28;20226;-82
2021/01/06 06:18:21;;;;;;;9.50;7.07;;;;;;;;;;5095621;28;20201;-84
2021/01/06 06:20:54;;;;;;;8.63;7.30;;;;;;;;;;5095045;28;20638;-83
2021/01/06 06:23:27;;;;;;;11.33;7.50;;;;;;;;;;5095255;28;20245;-82
2021/01/06 06:25:59;;;;;;;9.40;8.20;;;;;;;;;;5094721;28;20221;-82
2021/01/06 06:28:28;;;;;;;12.30;8.50;;;;;;;;;;5094771;28;20285;-81
2021/01/06 06:30:57;;;;;;;9.13;7.60;;;;;;;;;;5094374;28;20234;-82
2021/01/06 06:33:26;;;;;;;8.83;6.93;;;;;;;;;;5114827;28;20547;-81
2021/01/06 06:35:54;;;;;;;9.70;7.30;;;;;;;;;;5114438;28;20245;-82
2021/01/06 06:38:32;;;;;;;8.70;7.27;;;;;;;;;;5114772;28;20224;-83
2021/01/06 06:41:00;;;;;;;10.03;7.47;;;;;;;;;;5115122;28;20242;-80
2021/01/06 06:43:44;;;;;;;9.00;7.50;;;;;;;;;;5115055;28;20224;-81
2021/01/06 06:46:31;;;;;;;7.17;6.43;;;;;;;;;;5115305;28;20243;-81
2021/01/06 06:49:06;;;;;;;11.97;7.23;;;;;;;;;;5108066;28;20235;-82
2021/01/06 06:51:35;;;;;;;8.50;6.83;;;;;;;;;;5115202;28;20223;-84
2021/01/06 06:54:05;;;;;;;7.67;6.70;;;;;;;;;;5115093;28;20233;-82
2021/01/06 06:56:36;;;;;;;7.10;6.23;;;;;;;;;;5114882;28;20248;-84
2021/01/06 06:59:05;;;;;;;8.10;6.47;;;;;;;;;;5114846;28;20240;-84
2021/01/06 07:01:33;;;;;;;8.00;6.73;;;;;;;;;;5115153;28;20243;-82
2021/01/06 07:04:01;;;;;;;8.20;6.10;;;;;;;;;;5114857;28;20233;-82
2021/01/06 07:06:28;;;;;;;7.37;5.83;;;;;;;;;;5115153;28;20196;-83
2021/01/06 07:08:55;;;;;;;7.33;6.20;;;;;;;;;;5114684;28;20233;-83
2021/01/06 07:11:24;;;;;;;7.40;6.20;;;;;;;;;;5115116;28;20228;-80
2021/01/06 07:13:54;;;;;;;8.13;6.00;;;;;;;;;;5096873;28;20633;-81
2021/01/06 07:16:22;;;;;;;6.77;5.60;;;;;;;;;;5114741;28;20260;-81
2021/01/06 07:18:49;;;;;;;6.77;5.60;;;;;;;;;;5114114;28;20497;-82
2021/01/06 07:21:22;;;;;;;6.07;5.47;;;;;;;;;;5114703;28;20241;-82
2021/01/06 07:23:50;;;;;;;6.63;5.23;;;;;;;;;;5114959;28;20640;-84
2021/01/06 07:26:19;;;;;;;7.30;5.70;;;;;;;;;;5115201;28;20217;-83
2021/01/06 07:28:45;;;;;;;5.60;5.10;;;;;;;;;;5115819;28;20235;-84
2021/01/06 07:31:12;;;;;;;5.87;5.20;;;;;;;;;;5118566;28;20209;-83
2021/01/06 07:33:41;;;;;;;6.67;5.83;;;;;;;;;;5119365;28;20595;-83
2021/01/06 07:36:09;;;;;;;7.10;5.63;;;;;;;;;;5119052;28;20283;-83
2021/01/06 07:38:36;;;;;;;6.10;5.50;;;;;;;;;;5118778;28;20321;-84
2021/01/06 07:41:03;;;;;;;7.17;5.17;;;;;;;;;;5119074;28;20527;-84
2021/01/06 07:43:31;;;;;;;6.33;5.10;;;;;;;;;;5100632;28;20197;-84
2021/01/06 07:46:12;;;;;;;6.70;5.13;;;;;;;;;;5100326;28;20193;-84
2021/01/06 07:48:56;;;;;;;6.60;5.60;;;;;;;;;;5114858;28;20237;-85
2021/01/06 07:51:25;;;;;;;9.40;6.20;;;;;;;;;;5104862;28;20232;-84
2021/01/06 07:53:57;;;;;;;6.47;5.53;;;;;;;;;;5118229;28;20264;-82
2021/01/06 07:56:26;;;;;;;6.23;5.50;;;;;;;;;;5118687;28;20539;-82
2021/01/06 07:58:54;;;;;;;5.83;5.10;;;;;;;;;;5118553;28;20225;-82
2021/01/06 08:01:31;;;;;;;6.20;5.10;;;;;;;;;;5118599;28;20255;-82
2021/01/06 08:04:00;;;;;;;8.37;5.60;;;;;;;;;;5118086;28;20205;-82
2021/01/06 08:06:37;;;;;;;15.50;9.63;;;;;;;;;;5118507;28;20235;-82
2021/01/06 08:09:03;;;;;;;17.17;9.20;;;;;;;;;;5118158;28;20204;-82
2021/01/06 08:11:30;;;;;;;11.80;8.73;;;;;;;;;;5118348;28;20236;-81
2021/01/06 08:14:00;;;;;;;7.30;6.50;;;;;;;;;;5118410;28;20205;-82
2021/01/06 08:16:32;;;;;;;8.93;5.93;;;;;;;;;;5118329;28;20249;-83
2021/01/06 08:19:02;;;;;;;9.87;6.33;;;;;;;;;;5118215;28;20240;-83
2021/01/06 08:21:29;;;;;;;9.47;7.07;;;;;;;;;;5118168;28;20613;-83
2021/01/06 08:24:02;;;;;;;10.07;7.43;;;;;;;;;;5117821;28;20231;-83
2021/01/06 08:26:30;;;;;;;13.93;8.77;;;;;;;;;;5118122;28;20216;-83
2021/01/06 08:29:07;;;;;;;14.07;8.77;;;;;;;;;;5118143;28;20228;-83
2021/01/06 08:31:34;;;;;;;10.17;8.17;;;;;;;;;;5117835;28;20248;-83
2021/01/06 08:34:01;;;;;;;10.23;6.93;;;;;;;;;;5117865;28;20236;-83
2021/01/06 08:36:29;;;;;;;9.73;7.27;;;;;;;;;;5117855;28;20221;-82
2021/01/06 08:39:14;;;;;;;7.43;6.63;;;;;;;;;;5116316;28;20232;-83
2021/01/06 08:41:41;;;;;;;8.93;6.50;;;;;;;;;;5116400;28;20236;-83
2021/01/06 08:44:25;;;;;;;8.63;6.77;;;;;;;;;;5117418;28;20233;-83
2021/01/06 08:46:54;;;;;;;8.60;6.73;;;;;;;;;;5117241;28;20240;-83
2021/01/06 08:49:23;;;;;;;8.47;6.73;;;;;;;;;;5117386;28;20232;-83
2021/01/06 08:51:49;;;;;;;7.40;6.60;;;;;;;;;;5117467;28;20270;-83
2021/01/06 08:54:17;;;;;;;9.23;6.63;;;;;;;;;;5116944;28;20228;-82
2021/01/06 08:56:43;;;;;;;11.80;7.23;;;;;;;;;;5117209;28;20264;-83
2021/01/06 08:59:25;;;;;;;10.63;7.17;;;;;;;;;;5117144;28;20229;-83
2021/01/06 09:01:52;;;;;;;9.50;7.10;;;;;;;;;;5116631;28;20208;-83
2021/01/06 09:04:21;;;;;;;11.10;7.80;;;;;;;;;;5116805;28;20232;-81
2021/01/06 09:06:49;;;;;;;9.63;7.37;;;;;;;;;;5117239;28;20224;-82
2021/01/06 09:09:27;;;;;;;8.63;7.07;;;;;;;;;;5116774;28;20232;-83
2021/01/06 09:11:54;;;;;;;7.97;6.53;;;;;;;;;;5116930;28;20616;-83
2021/01/06 09:14:27;;;;;;;9.23;6.30;;;;;;;;;;5116790;28;20239;-83
2021/01/06 09:16:57;;;;;;;8.20;6.63;;;;;;;;;;5116881;28;20248;-83
2021/01/06 09:19:26;;;;;;;10.90;6.97;;;;;;;;;;5115962;28;20217;-82
2021/01/06 09:21:52;;;;;;;11.43;7.37;;;;;;;;;;5117031;28;20204;-83
2021/01/06 09:24:20;;;;;;;9.07;7.57;;;;;;;;;;5116741;28;20284;-83
2021/01/06 09:26:47;;;;;;;10.20;7.73;;;;;;;;;;5116539;28;20239;-82
2021/01/06 09:29:14;;;;;;;9.77;7.10;;;;;;;;;;5115831;28;20292;-83
2021/01/06 09:31:41;;;;;;;14.77;9.00;;;;;;;;;;5116182;28;20248;-81
2021/01/06 09:34:09;;;;;;;13.37;7.80;;;;;;;;;;5116644;28;20228;-83
2021/01/06 09:36:35;;;;;;;9.07;7.90;;;;;;;;;;5116310;28;20256;-83
2021/01/06 09:39:03;;;;;;;12.40;7.53;;;;;;;;;;5116452;28;20637;-82
2021/01/06 09:41:31;;;;;;;10.67;7.47;;;;;;;;;;5116419;28;20640;-83
2021/01/06 09:43:58;;;;;;;11.60;7.50;;;;;;;;;;5115843;28;20204;-86
2021/01/06 09:46:29;;;;;;;9.27;6.97;;;;;;;;;;5116619;28;20228;-86
2021/01/06 09:48:57;;;;;;;8.33;6.93;;;;;;;;;;5116304;28;20239;-83
2021/01/06 09:51:24;;;;;;;10.47;7.33;;;;;;;;;;5116244;28;20216;-83
2021/01/06 09:53:52;;;;;;;9.13;7.80;;;;;;;;;;5115993;28;20508;-84
2021/01/06 09:56:19;;;;;;;8.77;7.70;;;;;;;;;;5115968;28;20231;-83
2021/01/06 09:58:47;;;;;;;8.57;7.37;;;;;;;;;;5116213;28;20229;-82
2021/01/06 10:01:16;;;;;;;10.70;7.90;;;;;;;;;;5116373;28;20240;-83
2021/01/06 10:03:43;;;;;;;7.93;7.13;;;;;;;;;;5115620;28;20535;-82
2021/01/06 10:06:14;;;;;;;8.43;7.20;;;;;;;;;;5116326;28;20254;-86
2021/01/06 10:08:44;;;;;;;9.90;7.10;;;;;;;;;;5116135;28;20208;-81
2021/01/06 10:11:15;;;;;;;10.43;7.17;;;;;;;;;;5115921;28;20209;-83
2021/01/06 10:13:51;;;;;;;9.67;6.90;;;;;;;;;;5115733;28;20255;-86
2021/01/06 10:16:21;;;;;;;9.00;7.30;;;;;;;;;;5115658;28;20236;-82
2021/01/06 10:18:51;;;;;;;10.27;7.57;;;;;;;;;;5115293;28;20237;-80
2021/01/06 10:21:20;;;;;;;11.70;7.70;;;;;;;;;;5115487;28;20236;-82
2021/01/06 10:24:06;;;;;;;12.27;7.40;;;;;;;;;;5115650;28;20244;-83
2021/01/06 10:26:37;;;;;;;9.63;7.50;;;;;;;;;;5115548;28;20225;-83
2021/01/06 10:29:11;;;;;;;12.17;7.27;;;;;;;;;;5114730;28;20209;-85
2021/01/06 10:31:52;;;;;;;10.57;8.23;;;;;;;;;;5115135;28;20256;-87
2021/01/06 10:34:21;;;;;;;9.80;7.73;;;;;;;;;;5114907;28;20252;-84
2021/01/06 10:37:05;;;;;;;10.57;7.80;;;;;;;;;;5115406;28;20337;-84
2021/01/06 10:39:37;;;;;;;9.77;7.50;;;;;;;;;;5115227;28;20213;-82
2021/01/06 10:42:05;;;;;;;13.93;8.37;;;;;;;;;;5115402;28;20240;-81
2021/01/06 10:44:34;;;;;;;13.50;8.53;;;;;;;;;;5114491;28;20244;-82
2021/01/06 10:47:18;;;;;;;13.10;9.53;;;;;;;;;;5115030;28;20288;-82
2021/01/06 10:49:55;;;;;;;22.53;14.60;;;;;;;;;;5107876;28;20668;-81
2021/01/06 10:52:23;;;;;;;19.07;14.67;;;;;;;;;;5115456;28;20609;-81
2021/01/06 10:54:56;;;;;;;10.10;8.40;;;;;;;;;;5115588;28;20229;-82
2021/01/06 10:57:28;;;;;;;17.50;8.23;;;;;;;;;;5115267;28;20248;-81
2021/01/06 11:00:09;;;;;;;9.07;7.77;;;;;;;;;;5115287;28;20228;-81
2021/01/06 11:02:38;;;;;;;9.33;6.67;;;;;;;;;;5114893;28;20232;-80
2021/01/06 11:05:11;;;;;;;9.50;6.93;;;;;;;;;;5115513;28;20240;-80
2021/01/06 11:07:47;;;;;;;8.90;7.33;;;;;;;;;;5115078;28;20236;-82
2021/01/06 11:10:28;;;;;;;12.10;7.17;;;;;;;;;;5115309;28;20238;-82
2021/01/06 11:13:01;;;;;;;7.80;7.00;;;;;;;;;;5112682;28;20250;-82
2021/01/06 11:15:38;;;;;;;8.60;7.67;;;;;;;;;;5115505;28;20644;-81
2021/01/06 11:18:15;;;;;;;10.20;8.00;;;;;;;;;;5115238;28;20255;-82
2021/01/06 11:20:45;;;;;;;9.37;7.53;;;;;;;;;;5115403;28;20234;-83
2021/01/06 11:23:39;;;;;;;8.73;6.60;;;;;;;;;;5115017;28;20235;-86
2021/01/06 11:26:20;;;;;;;9.40;6.87;;;;;;;;;;5115452;28;20254;-83
2021/01/06 11:28:51;;;;;;;9.60;6.90;;;;;;;;;;5114342;28;20201;-81
2021/01/06 11:31:25;;;;;;;8.07;6.77;;;;;;;;;;5115328;28;20217;-87
2021/01/06 11:33:51;;;;;;;9.03;7.07;;;;;;;;;;5114997;28;20205;-82
2021/01/06 11:36:41;;;;;;;7.57;6.77;;;;;;;;;;5114998;28;20233;-84
2021/01/06 11:39:08;;;;;;;7.97;6.27;;;;;;;;;;5114407;28;20205;-81
2021/01/06 11:41:53;;;;;;;8.23;5.87;;;;;;;;;;5114289;28;20224;-81
2021/01/06 11:44:26;;;;;;;7.07;6.30;;;;;;;;;;5115165;28;20493;-83
2021/01/06 11:47:12;;;;;;;8.95;7.53;;;;;;;;;;5114133;28;20710;-81
2021/01/06 11:49:48;;;;;;;7.37;6.67;;;;;;;;;;5083175;28;20197;-81
2021/01/06 11:52:32;;;;;;;7.63;6.47;;;;;;;;;;5114531;28;20250;-85
2021/01/06 11:55:00;;;;;;;6.33;5.70;;;;;;;;;;5114490;28;20205;-88
2021/01/06 11:57:31;;;;;;;9.17;6.80;;;;;;;;;;5114490;28;20302;-84
2021/01/06 12:00:12;;;;;;;9.97;7.20;;;;;;;;;;5096583;28;20198;-86
2021/01/06 12:02:42;;;;;;;6.67;5.80;;;;;;;;;;5114514;28;20201;-82
2021/01/06 12:05:15;;;;;;;7.30;6.30;;;;;;;;;;5096192;28;20254;-80
2021/01/06 12:07:58;;;;;;;6.53;5.30;;;;;;;;;;5113742;28;20239;-81
2021/01/06 12:10:27;;;;;;;6.03;5.53;;;;;;;;;;5114772;28;20271;-83
2021/01/06 12:12:59;;;;;;;6.17;5.57;;;;;;;;;;5114122;28;20229;-82
2021/01/06 12:15:44;;;;;;;6.67;5.93;;;;;;;;;;5116584;28;20205;-82
2021/01/06 12:18:25;;;;;;;6.87;5.53;;;;;;;;;;5118015;28;20245;-84
2021/01/06 12:20:51;;;;;;;10.07;8.23;;;;;;;;;;5117938;28;20478;-82
2021/01/06 12:23:19;;;;;;;7.87;7.07;;;;;;;;;;5117835;28;20236;-82
2021/01/06 12:25:46;;;;;;;7.20;5.90;;;;;;;;;;5118074;28;20224;-82
2021/01/06 12:28:18;;;;;;;7.07;6.00;;;;;;;;;;5116936;28;20267;-81
2021/01/06 12:30:47;;;;;;;11.27;5.73;;;;;;;;;;5100114;28;20485;-81
2021/01/06 12:33:26;;;;;;;6.37;5.77;;;;;;;;;;5117132;28;20220;-82
2021/01/06 12:36:04;;;;;;;6.43;5.80;;;;;;;;;;5117547;28;20236;-83
2021/01/06 12:38:31;;;;;;;9.60;5.87;;;;;;;;;;5117943;28;20577;-81
2021/01/06 12:40:59;;;;;;;6.53;5.90;;;;;;;;;;5117577;28;20605;-82
2021/01/06 12:43:29;;;;;;;5.67;5.00;;;;;;;;;;5117479;28;20196;-81
2021/01/06 12:46:00;;;;;;;5.63;5.13;;;;;;;;;;5117604;28;20338;-82
2021/01/06 12:48:31;;;;;;;8.80;5.53;;;;;;;;;;5080930;28;20275;-82
2021/01/06 12:51:01;;;;;;;8.83;6.93;;;;;;;;;;5097000;28;20279;-83
2021/01/06 12:53:29;;;;;;;8.77;7.27;;;;;;;;;;5078771;28;20197;-83
2021/01/06 12:56:07;;;;;;;8.17;6.27;;;;;;;;;;5096213;28;20226;-83
2021/01/06 12:58:35;;;;;;;13.67;8.67;;;;;;;;;;5094585;28;20260;-83
2021/01/06 13:01:03;;;;;;;15.63;8.43;;;;;;;;;;5093696;28;20233;-84
2021/01/06 13:03:33;;;;;;;15.87;10.13;;;;;;;;;;5078434;28;20214;-83
2021/01/06 13:06:04;;;;;;;10.47;7.90;;;;;;;;;;5095875;28;20244;-83
2021/01/06 13:08:37;;;;;;;17.90;10.10;;;;;;;;;;5077830;28;20606;-84
2021/01/06 13:11:08;;;;;;;12.57;9.13;;;;;;;;;;5096735;28;20499;-83
2021/01/06 13:13:35;;;;;;;18.50;10.10;;;;;;;;;;5095970;28;20237;-82
2021/01/06 13:16:03;;;;;;;8.07;6.90;;;;;;;;;;5096688;28;20225;-82
2021/01/06 13:18:36;;;;;;;7.30;6.53;;;;;;;;;;5096165;28;20256;-81
2021/01/06 13:21:05;;;;;;;7.83;6.70;;;;;;;;;;5096786;28;20237;-83
2021/01/06 13:23:36;;;;;;;6.53;5.93;;;;;;;;;;5096183;28;20236;-83
2021/01/06 13:26:20;;;;;;;9.70;8.70;;;;;;;;;;5077879;28;20205;-82
2021/01/06 13:28:51;;;;;;;14.97;12.00;;;;;;;;;;5096178;28;20555;-81
2021/01/06 13:31:22;;;;;;;12.20;10.97;;;;;;;;;;5096055;28;20260;-81
2021/01/06 13:33:52;;;;;;;10.50;9.40;;;;;;;;;;5095925;28;20225;-81
2021/01/06 13:36:21;;;;;;;9.67;8.67;;;;;;;;;;5095819;28;20225;-81
2021/01/06 13:38:57;;;;;;;9.00;7.63;;;;;;;;;;5095706;28;20302;-81
2021/01/06 13:41:26;;;;;;;8.57;7.37;;;;;;;;;;5096072;28;20200;-82
2021/01/06 13:43:55;;;;;;;9.63;7.10;;;;;;;;;;5077952;28;20587;-81
2021/01/06 13:46:27;;;;;;;6.67;5.90;;;;;;;;;;5078204;28;20226;-81
2021/01/06 13:49:02;;;;;;;6.40;5.80;;;;;;;;;;5095979;28;20210;-81
2021/01/06 13:51:38;;;;;;;6.00;5.33;;;;;;;;;;5095572;28;20617;-81
2021/01/06 13:54:05;;;;;;;6.63;5.47;;;;;;;;;;5095441;28;20236;-81
2021/01/06 13:56:38;;;;;;;5.60;5.10;;;;;;;;;;5095507;28;20249;-81
2021/01/06 13:59:14;;;;;;;5.77;5.17;;;;;;;;;;5096064;28;20237;-82
2021/01/06 14:01:42;;;;;;;5.03;4.60;;;;;;;;;;5094798;28;20221;-79
2021/01/06 14:04:11;;;;;;;5.33;4.83;;;;;;;;;;5089091;28;20252;-81
2021/01/06 14:06:47;;;;;;;6.73;4.40;;;;;;;;;;5094776;28;20498;-81
2021/01/06 14:09:22;;;;;;;5.23;4.73;;;;;;;;;;5095425;28;20202;-81
2021/01/06 14:12:01;;;;;;;6.67;5.03;;;;;;;;;;5095308;28;20262;-83
2021/01/06 14:14:32;;;;;;;6.13;5.27;;;;;;;;;;5095667;28;20205;-80
2021/01/06 14:17:02;;;;;;;4.73;4.23;;;;;;;;;;5095096;28;20233;-80
2021/01/06 14:19:53;;;;;;;5.67;5.03;;;;;;;;;;5095848;28;20632;-80
2021/01/06 14:22:38;;;;;;;5.07;4.57;;;;;;;;;;5095065;28;20345;-81
2021/01/06 14:25:24;;;;;;;5.90;4.97;;;;;;;;;;5095715;28;20563;-82
2021/01/06 14:27:53;;;;;;;5.77;5.17;;;;;;;;;;5094812;28;20198;-81
2021/01/06 14:30:21;;;;;;;5.27;4.73;;;;;;;;;;5095383;28;20642;-83
2021/01/06 14:32:57;;;;;;;8.60;6.00;;;;;;;;;;5095030;28;20263;-82
2021/01/06 14:35:26;;;;;;;5.87;5.33;;;;;;;;;;5094940;28;20244;-80
2021/01/06 14:38:05;;;;;;;6.03;4.73;;;;;;;;;;5093358;28;20245;-82
2021/01/06 14:40:33;;;;;;;6.07;5.20;;;;;;;;;;5094429;28;20236;-80
2021/01/06 14:43:01;;;;;;;5.20;4.73;;;;;;;;;;5094769;28;20233;-82
2021/01/06 14:45:31;;;;;;;4.73;4.33;;;;;;;;;;5094220;28;20303;-82
2021/01/06 14:48:00;;;;;;;5.30;4.80;;;;;;;;;;5093242;28;20233;-81
2021/01/06 14:50:32;;;;;;;6.93;4.63;;;;;;;;;;5094187;28;20225;-81
2021/01/06 14:53:01;;;;;;;5.33;4.83;;;;;;;;;;5094152;28;20230;-80
2021/01/06 14:55:29;;;;;;;7.10;5.27;;;;;;;;;;5094467;28;20241;-82
2021/01/06 14:58:00;;;;;;;6.00;5.40;;;;;;;;;;5094192;28;20252;-82
2021/01/06 15:00:36;;;;;;;6.40;4.87;;;;;;;;;;5094262;28;20236;-82